createdAt,value
2022-12-08T00:01:34.592Z,26.75
2022-12-08T00:04:03.621Z,39.78
2022-12-08T00:06:51.570Z,34.90
2022-12-08T00:09:24.438Z,34.95
2022-12-08T00:12:06.221Z,40.55
2022-12-08T00:14:39.193Z,33.45
2022-12-08T00:17:10.209Z,38.30
2022-12-08T00:19:44.376Z,30.17
2022-12-08T00:22:15.825Z,39.28
2022-12-08T00:24:49.252Z,35.80
2022-12-08T00:27:18.368Z,32.92
2022-12-08T00:29:46.628Z,38.50
2022-12-08T00:32:16.858Z,31.33
2022-12-08T00:34:44.541Z,29.00
2022-12-08T00:37:12.131Z,31.05
2022-12-08T00:39:39.839Z,38.17
2022-12-08T00:42:14.047Z,29.83
2022-12-08T00:44:43.016Z,28.27
2022-12-08T00:47:14.002Z,33.05
2022-12-08T00:49:44.982Z,30.50
2022-12-08T00:52:16.165Z,32.10
2022-12-08T00:54:44.145Z,33.15
2022-12-08T00:57:11.877Z,32.95
2022-12-08T00:59:40.008Z,35.72
2022-12-08T01:02:07.954Z,32.97
2022-12-08T01:04:35.959Z,41.20
2022-12-08T01:07:04.121Z,50.03
2022-12-08T01:09:32.811Z,44.92
2022-12-08T01:12:00.547Z,52.15
2022-12-08T01:14:28.241Z,47.92
2022-12-08T01:16:55.882Z,40.83
2022-12-08T01:19:23.793Z,37.97
2022-12-08T01:21:51.499Z,39.63
2022-12-08T01:24:21.273Z,39.30
2022-12-08T01:26:50.685Z,49.85
2022-12-08T01:29:19.024Z,50.03
2022-12-08T01:31:46.961Z,42.30
2022-12-08T01:34:14.915Z,42.15
2022-12-08T01:36:44.517Z,35.75
2022-12-08T01:39:17.246Z,53.63
2022-12-08T01:41:46.698Z,47.88
2022-12-08T01:44:14.216Z,35.53
2022-12-08T01:46:48.544Z,37.65
2022-12-08T01:49:21.306Z,40.45
2022-12-08T01:52:03.474Z,40.40
2022-12-08T01:54:37.243Z,46.70
2022-12-08T01:57:11.655Z,38.17
2022-12-08T01:59:47.176Z,41.42
2022-12-08T02:02:15.363Z,41.33
2022-12-08T02:04:43.372Z,40.70
2022-12-08T02:07:13.280Z,41.70
2022-12-08T02:09:42.311Z,38.05
2022-12-08T02:12:11.477Z,44.83
2022-12-08T02:14:40.048Z,37.83
2022-12-08T02:17:32.637Z,33.15
2022-12-08T02:20:22.630Z,34.47
2022-12-08T02:23:15.144Z,38.03
2022-12-08T02:26:17.813Z,34.80
2022-12-08T02:28:57.367Z,42.97
2022-12-08T02:36:40.437Z,40.70
2022-12-08T02:39:27.384Z,38.75
2022-12-08T02:42:17.674Z,38.08
2022-12-08T02:44:55.457Z,45.53
2022-12-08T02:47:25.191Z,47.35
2022-12-08T02:49:52.760Z,46.55
2022-12-08T02:52:20.354Z,46.00
2022-12-08T02:54:55.469Z,38.70
2022-12-08T02:57:28.989Z,43.15
2022-12-08T03:00:18.405Z,38.72
2022-12-08T03:05:31.729Z,45.30
2022-12-08T03:08:21.883Z,37.13
2022-12-08T03:11:15.426Z,37.30
2022-12-08T03:13:47.152Z,38.30
2022-12-08T03:16:18.801Z,33.88
2022-12-08T03:18:51.146Z,36.50
2022-12-08T03:21:21.069Z,42.78
2022-12-08T03:23:52.145Z,39.30
2022-12-08T03:26:36.192Z,47.28
2022-12-08T03:29:04.616Z,43.33
2022-12-08T03:31:37.816Z,34.75
2022-12-08T03:34:06.513Z,44.75
2022-12-08T03:36:34.624Z,42.00
2022-12-08T03:39:02.352Z,44.03
2022-12-08T03:41:30.013Z,38.95
2022-12-08T03:44:00.644Z,46.40
2022-12-08T03:48:57.891Z,43.05
2022-12-08T03:51:25.631Z,42.35
2022-12-08T03:53:53.463Z,35.00
2022-12-08T03:56:23.939Z,37.17
2022-12-08T03:58:51.938Z,42.47
2022-12-08T04:01:23.343Z,40.60
2022-12-08T04:03:51.362Z,41.92
2022-12-08T04:06:20.117Z,35.25
2022-12-08T04:08:48.524Z,43.95
2022-12-08T04:11:16.264Z,41.45
2022-12-08T04:13:44.674Z,32.47
2022-12-08T04:16:17.910Z,33.63
2022-12-08T04:18:45.965Z,42.35
2022-12-08T04:21:17.164Z,43.08
2022-12-08T04:23:44.931Z,46.20
2022-12-08T04:26:16.358Z,36.15
2022-12-08T04:28:44.105Z,37.10
2022-12-08T04:31:13.173Z,39.72
2022-12-08T04:33:41.017Z,31.77
2022-12-08T04:36:09.364Z,45.35
2022-12-08T04:38:37.078Z,44.28
2022-12-08T04:41:04.758Z,38.50
2022-12-08T04:43:32.428Z,37.65
2022-12-08T04:46:00.124Z,37.67
2022-12-08T04:48:27.889Z,38.20
2022-12-08T04:50:55.516Z,32.63
2022-12-08T04:53:23.249Z,41.70
2022-12-08T04:55:50.912Z,37.30
2022-12-08T04:58:21.578Z,42.50
2022-12-08T05:00:49.787Z,36.25
2022-12-08T05:03:17.632Z,38.70
2022-12-08T05:05:45.239Z,34.45
2022-12-08T05:08:13.218Z,36.15
2022-12-08T05:10:44.047Z,30.25
2022-12-08T05:13:11.679Z,29.88
2022-12-08T05:15:39.411Z,30.63
2022-12-08T05:18:07.512Z,31.63
2022-12-08T05:20:35.614Z,28.63
2022-12-08T05:23:03.545Z,34.25
2022-12-08T05:25:31.105Z,30.02
2022-12-08T05:28:24.670Z,39.15
2022-12-08T05:30:47.422Z,39.63
2022-12-08T05:33:15.088Z,36.50
2022-12-08T05:35:43.150Z,31.10
2022-12-08T05:38:11.683Z,29.92
2022-12-08T05:40:39.884Z,28.87
2022-12-08T05:43:07.512Z,30.50
2022-12-08T05:45:35.315Z,28.27
2022-12-08T05:48:05.717Z,31.58
2022-12-08T05:50:33.375Z,32.38
2022-12-08T05:53:04.208Z,30.33
2022-12-08T05:55:31.965Z,31.92
2022-12-08T05:58:04.564Z,27.67
2022-12-08T06:00:35.478Z,26.60
2022-12-08T06:03:09.023Z,35.83
2022-12-08T06:05:36.986Z,39.53
2022-12-08T06:08:04.723Z,34.92
2022-12-08T06:10:32.709Z,24.25
2022-12-08T06:13:00.764Z,33.00
2022-12-08T06:15:28.522Z,27.02
2022-12-08T06:18:00.214Z,35.50
2022-12-08T06:20:28.472Z,28.02
2022-12-08T06:22:56.387Z,30.48
2022-12-08T06:25:24.835Z,33.72
2022-12-08T06:27:52.451Z,32.58
2022-12-08T06:30:20.140Z,26.33
2022-12-08T06:32:47.723Z,30.23
2022-12-08T06:35:15.707Z,29.88
2022-12-08T06:37:49.085Z,33.53
2022-12-08T06:40:17.370Z,28.85
2022-12-08T06:42:46.527Z,25.77
2022-12-08T06:45:18.288Z,25.30
2022-12-08T06:47:49.345Z,25.25
2022-12-08T06:50:17.298Z,24.33
2022-12-08T06:52:57.032Z,24.58
2022-12-08T06:58:20.052Z,30.73
2022-12-08T07:00:47.752Z,25.63
2022-12-08T07:03:16.038Z,23.52
2022-12-08T07:05:43.876Z,26.75
2022-12-08T07:08:11.637Z,28.67
2022-12-08T07:10:39.715Z,26.58
2022-12-08T07:13:07.674Z,29.27
2022-12-08T07:15:35.782Z,32.60
2022-12-08T07:18:03.591Z,23.95
2022-12-08T07:20:31.371Z,29.00
2022-12-08T07:22:59.108Z,23.15
2022-12-08T07:25:27.128Z,27.67
2022-12-08T07:27:54.943Z,22.90
2022-12-08T07:30:22.525Z,29.77
2022-12-08T07:32:50.270Z,27.02
2022-12-08T07:35:18.283Z,27.60
2022-12-08T07:37:45.924Z,24.08
2022-12-08T07:40:13.992Z,21.92
2022-12-08T07:42:42.031Z,36.35
2022-12-08T07:45:10.073Z,31.00
2022-12-08T07:47:37.675Z,26.15
2022-12-08T07:50:09.143Z,29.15
2022-12-08T07:52:37.195Z,28.55
2022-12-08T07:55:05.228Z,30.70
2022-12-08T07:57:33.045Z,32.70
2022-12-08T08:00:00.731Z,29.52
2022-12-08T08:02:31.452Z,31.67
2022-12-08T08:04:59.548Z,41.58
2022-12-08T08:07:27.233Z,33.88
2022-12-08T08:09:55.175Z,35.17
2022-12-08T08:12:33.529Z,24.42
2022-12-08T08:15:02.986Z,33.10
2022-12-08T08:17:31.075Z,29.80
2022-12-08T08:20:02.375Z,28.67
2022-12-08T08:22:30.413Z,35.03
2022-12-08T08:24:58.229Z,34.88
2022-12-08T08:27:26.899Z,35.45
2022-12-08T08:29:54.881Z,30.02
2022-12-08T08:32:22.621Z,33.80
2022-12-08T08:34:53.689Z,34.67
2022-12-08T08:37:24.245Z,35.95
2022-12-08T08:39:51.964Z,27.55
2022-12-08T08:42:22.334Z,33.08
2022-12-08T08:44:52.809Z,37.70
2022-12-08T08:47:21.042Z,38.60
2022-12-08T08:49:48.743Z,32.58
2022-12-08T08:52:19.724Z,39.17
2022-12-08T08:54:52.438Z,41.85
2022-12-08T08:57:44.220Z,44.30
2022-12-08T09:00:15.678Z,33.53
2022-12-08T09:02:47.520Z,31.60
2022-12-08T09:05:15.405Z,33.85
2022-12-08T09:07:44.394Z,38.63
2022-12-08T09:10:13.595Z,32.58
2022-12-08T09:12:50.280Z,44.00
2022-12-08T09:15:40.009Z,47.78
2022-12-08T09:18:08.268Z,42.47
2022-12-08T09:20:36.524Z,45.20
2022-12-08T09:23:04.469Z,60.03
2022-12-08T09:25:34.290Z,44.53
2022-12-08T09:28:02.014Z,39.65
2022-12-08T09:30:29.793Z,46.42
2022-12-08T09:32:57.767Z,46.75
2022-12-08T09:35:25.840Z,44.20
2022-12-08T09:37:53.609Z,44.05
2022-12-08T09:40:23.861Z,39.80
2022-12-08T09:43:09.835Z,35.78
2022-12-08T09:45:38.331Z,39.65
2022-12-08T09:48:13.163Z,43.03
2022-12-08T09:50:58.023Z,40.22
2022-12-08T09:53:36.007Z,57.75
2022-12-08T09:56:31.277Z,36.90
2022-12-08T09:59:20.269Z,43.28
2022-12-08T10:01:48.125Z,50.70
2022-12-08T10:04:24.403Z,39.30
2022-12-08T10:07:37.270Z,44.45
2022-12-08T10:10:14.332Z,56.97
2022-12-08T10:13:08.279Z,41.08
2022-12-08T10:15:47.967Z,53.83
2022-12-08T10:18:23.059Z,50.00
2022-12-08T10:20:52.075Z,47.25
2022-12-08T10:23:33.045Z,50.38
2022-12-08T10:26:04.366Z,51.65
2022-12-08T10:28:33.846Z,52.88
2022-12-08T10:31:02.142Z,48.40
2022-12-08T10:33:33.503Z,44.58
2022-12-08T10:36:04.994Z,42.97
2022-12-08T10:38:35.277Z,62.63
2022-12-08T10:41:11.647Z,105.20
2022-12-08T10:43:52.996Z,94.70
2022-12-08T10:46:25.832Z,43.90
2022-12-08T10:48:56.001Z,46.00
2022-12-08T10:51:39.683Z,75.95
2022-12-08T10:54:37.439Z,64.75
2022-12-08T10:57:05.095Z,46.88
2022-12-08T10:59:34.000Z,56.63
2022-12-08T11:02:01.850Z,52.30
2022-12-08T11:04:36.835Z,36.95
2022-12-08T11:07:06.498Z,29.50
2022-12-08T11:09:46.823Z,26.17
2022-12-08T11:12:18.622Z,28.88
2022-12-08T11:14:55.810Z,28.77
2022-12-08T11:17:23.472Z,29.30
2022-12-08T11:20:09.733Z,27.52
2022-12-08T11:22:45.933Z,25.05
2022-12-08T11:25:22.391Z,19.27
2022-12-08T11:27:53.148Z,19.65
2022-12-08T11:30:27.776Z,22.17
2022-12-08T11:33:06.116Z,17.65
2022-12-08T11:35:40.281Z,18.27
2022-12-08T11:38:22.265Z,13.82
2022-12-08T11:41:16.456Z,21.42
2022-12-08T11:44:01.754Z,15.75
2022-12-08T11:46:38.321Z,13.50
2022-12-08T11:49:11.564Z,12.00
2022-12-08T11:51:51.904Z,9.57
2022-12-08T11:54:30.869Z,10.15
2022-12-08T11:57:04.860Z,9.30
2022-12-08T11:59:46.300Z,13.55
2022-12-08T12:02:19.748Z,10.88
2022-12-08T12:05:01.070Z,11.23
2022-12-08T12:07:37.910Z,11.23
2022-12-08T12:10:20.863Z,14.13
2022-12-08T12:13:00.583Z,11.18
2022-12-08T12:18:20.567Z,11.68
2022-12-08T12:20:54.127Z,9.60
2022-12-08T12:23:46.628Z,8.15
2022-12-08T12:26:22.201Z,6.55
2022-12-08T12:28:55.544Z,8.15
2022-12-08T12:31:33.164Z,11.43
2022-12-08T12:34:16.848Z,10.13
2022-12-08T12:36:57.503Z,12.73
2022-12-08T12:39:29.312Z,13.30
2022-12-08T12:42:02.845Z,8.85
2022-12-08T12:44:33.358Z,8.77
2022-12-08T12:47:03.240Z,7.78
2022-12-08T12:49:50.426Z,7.45
2022-12-08T12:52:23.914Z,6.63
2022-12-08T12:54:51.598Z,9.93
2022-12-08T12:57:19.076Z,6.38
2022-12-08T12:59:55.229Z,7.38
2022-12-08T13:02:28.734Z,6.30
2022-12-08T13:05:07.632Z,5.32
2022-12-08T13:07:52.852Z,7.80
2022-12-08T13:10:32.661Z,6.15
2022-12-08T13:13:05.603Z,5.15
2022-12-08T13:15:53.786Z,5.35
2022-12-08T13:18:49.259Z,6.57
2022-12-08T13:21:21.226Z,4.65
2022-12-08T13:24:10.385Z,24.30
2022-12-08T13:26:46.030Z,29.87
2022-12-08T13:29:15.414Z,14.45
2022-12-08T13:31:50.604Z,9.15
2022-12-08T13:34:25.961Z,7.30
2022-12-08T13:37:11.362Z,8.63
2022-12-08T13:40:06.934Z,9.68
2022-12-08T13:42:48.963Z,6.78
2022-12-08T13:45:59.091Z,8.95
2022-12-08T13:49:09.539Z,5.70
2022-12-08T13:53:22.482Z,8.07
2022-12-08T13:57:16.212Z,10.85
2022-12-08T13:59:45.599Z,7.68
2022-12-08T14:02:18.061Z,7.30
2022-12-08T14:07:40.517Z,8.18
2022-12-08T14:10:13.620Z,48.25
2022-12-08T14:12:45.791Z,35.20
2022-12-08T14:15:15.507Z,17.13
2022-12-08T14:20:29.597Z,11.38
2022-12-08T14:22:59.529Z,10.10
2022-12-08T14:28:04.832Z,12.45
2022-12-08T14:30:34.536Z,11.57
2022-12-08T14:33:04.498Z,24.52
2022-12-08T14:35:33.753Z,11.52
2022-12-08T14:38:04.660Z,23.38
2022-12-08T14:40:38.467Z,15.40
2022-12-08T14:43:13.724Z,25.77
2022-12-08T14:45:44.046Z,11.40
2022-12-08T14:48:26.484Z,14.65
2022-12-08T14:51:03.357Z,24.70
2022-12-08T14:53:44.803Z,32.55
2022-12-08T14:56:27.386Z,14.25
2022-12-08T14:59:16.208Z,17.52
2022-12-08T15:01:44.547Z,13.10
2022-12-08T15:04:12.128Z,9.90
2022-12-08T15:07:02.698Z,10.77
2022-12-08T15:09:43.330Z,10.95
2022-12-08T15:12:13.953Z,13.40
2022-12-08T15:14:55.309Z,16.55
2022-12-08T15:17:51.700Z,12.02
2022-12-08T15:20:35.596Z,17.45
2022-12-08T15:23:04.642Z,14.27
2022-12-08T15:25:32.488Z,20.17
2022-12-08T15:28:03.151Z,16.30
2022-12-08T15:30:31.326Z,18.65
2022-12-08T15:32:58.997Z,16.75
2022-12-08T15:35:26.721Z,16.65
2022-12-08T15:37:54.422Z,15.25
2022-12-08T15:40:23.116Z,20.60
2022-12-08T15:42:50.925Z,17.98
2022-12-08T15:45:19.571Z,26.10
2022-12-08T15:47:47.928Z,20.75
2022-12-08T15:50:19.176Z,19.70
2022-12-08T15:52:51.338Z,20.88
2022-12-08T15:55:22.556Z,33.25
2022-12-08T15:58:45.047Z,48.83
2022-12-08T16:00:55.684Z,105.85
2022-12-08T16:03:59.765Z,41.40
2022-12-08T16:09:27.341Z,17.02
2022-12-08T16:12:18.025Z,18.70
2022-12-08T16:17:36.364Z,20.77
2022-12-08T16:20:11.226Z,21.52
2022-12-08T16:22:54.491Z,25.17
2022-12-08T16:25:36.355Z,20.45
2022-12-08T16:28:45.121Z,25.63
2022-12-08T16:31:02.726Z,16.23
2022-12-08T16:33:30.294Z,24.90
2022-12-08T16:35:57.982Z,24.27
2022-12-08T16:38:25.739Z,23.23
2022-12-08T16:41:11.682Z,23.63
2022-12-08T16:43:42.331Z,25.05
2022-12-08T16:46:19.375Z,25.33
2022-12-08T16:48:50.364Z,20.33
2022-12-08T16:51:25.100Z,22.63
2022-12-08T16:53:56.900Z,28.50
2022-12-08T16:56:30.629Z,24.60
2022-12-08T16:59:00.559Z,24.73
2022-12-08T17:01:28.806Z,27.42
2022-12-08T17:04:29.282Z,26.02
2022-12-08T17:06:44.205Z,45.25
2022-12-08T17:09:11.904Z,35.22
2022-12-08T17:11:43.443Z,28.27
2022-12-08T17:14:15.145Z,28.02
2022-12-08T17:16:43.201Z,28.35
2022-12-08T17:19:13.277Z,27.58
2022-12-08T17:21:41.417Z,20.92
2022-12-08T17:24:09.782Z,24.10
2022-12-08T17:26:37.349Z,26.85
2022-12-08T17:29:05.170Z,33.60
2022-12-08T17:31:33.484Z,32.33
2022-12-08T17:34:04.955Z,38.50
2022-12-08T17:36:32.871Z,30.27
2022-12-08T17:39:01.212Z,34.33
2022-12-08T17:41:30.607Z,26.50
2022-12-08T17:43:58.272Z,35.17
2022-12-08T17:46:26.804Z,25.83
2022-12-08T17:48:54.664Z,34.67
2022-12-08T17:51:22.747Z,34.13
2022-12-08T17:53:50.675Z,33.70
2022-12-08T17:56:21.934Z,29.02
2022-12-08T17:58:54.850Z,34.28
2022-12-08T18:01:24.551Z,36.50
2022-12-08T18:03:52.581Z,39.30
2022-12-08T18:06:22.358Z,36.55
2022-12-08T18:08:52.197Z,39.08
2022-12-08T18:11:32.443Z,32.25
2022-12-08T18:14:03.187Z,35.13
2022-12-08T18:16:31.341Z,36.17
2022-12-08T18:18:59.540Z,40.15
2022-12-08T18:21:27.242Z,39.30
2022-12-08T18:23:54.816Z,38.15
2022-12-08T18:26:23.347Z,34.92
2022-12-08T18:28:51.107Z,39.75
2022-12-08T18:31:21.788Z,50.72
2022-12-08T18:33:50.842Z,43.92
2022-12-08T18:36:22.091Z,59.88
2022-12-08T18:38:50.213Z,50.03
2022-12-08T18:41:24.492Z,44.83
2022-12-08T18:43:53.428Z,46.88
2022-12-08T18:46:21.622Z,49.33
2022-12-08T18:48:51.805Z,47.92
2022-12-08T18:51:24.220Z,48.30
2022-12-08T18:53:52.860Z,46.65
2022-12-08T18:56:25.366Z,51.97
2022-12-08T18:58:57.367Z,42.63
2022-12-08T19:01:29.286Z,48.55
2022-12-08T19:04:26.761Z,50.65
2022-12-08T19:06:47.141Z,46.33
2022-12-08T19:09:15.915Z,39.80
2022-12-08T19:11:44.203Z,43.90
2022-12-08T19:14:15.303Z,47.80
2022-12-08T19:16:46.594Z,54.30
2022-12-08T19:19:16.958Z,47.03
2022-12-08T19:21:46.733Z,57.03
2022-12-08T19:24:18.245Z,55.85
2022-12-08T19:26:46.474Z,56.72
2022-12-08T19:29:16.931Z,49.92
2022-12-08T19:31:44.849Z,47.85
2022-12-08T19:34:14.295Z,53.78
2022-12-08T19:36:43.065Z,46.92
2022-12-08T19:39:37.956Z,47.92
2022-12-08T19:42:39.062Z,50.10
2022-12-08T19:45:17.375Z,55.15
2022-12-08T19:47:45.318Z,46.40
2022-12-08T19:50:33.532Z,53.92
2022-12-08T19:53:01.559Z,45.70
2022-12-08T19:55:29.476Z,51.88
2022-12-08T19:57:57.325Z,44.67
2022-12-08T20:00:25.636Z,58.42
2022-12-08T20:02:53.583Z,52.88
2022-12-08T20:05:24.355Z,49.05
2022-12-08T20:07:55.557Z,48.55
2022-12-08T20:10:35.336Z,45.53
2022-12-08T20:13:22.509Z,50.42
2022-12-08T20:15:50.631Z,58.53
2022-12-08T20:18:18.482Z,59.88
2022-12-08T20:20:47.471Z,56.15
2022-12-08T20:23:16.475Z,60.28
2022-12-08T20:25:45.624Z,54.53
2022-12-08T20:28:13.508Z,52.70
2022-12-08T20:30:42.536Z,41.97
2022-12-08T20:33:13.636Z,40.75
2022-12-08T20:35:41.715Z,45.22
2022-12-08T20:38:10.480Z,50.15
2022-12-08T20:40:47.135Z,43.50
2022-12-08T20:43:15.189Z,39.45
2022-12-08T20:45:42.788Z,49.08
2022-12-08T20:48:10.728Z,37.70
2022-12-08T20:50:38.634Z,41.33
2022-12-08T20:53:07.075Z,36.88
2022-12-08T20:55:43.739Z,35.85
2022-12-08T20:58:12.338Z,38.85
2022-12-08T21:00:40.210Z,36.20
2022-12-08T21:03:08.366Z,34.60
2022-12-08T21:05:39.112Z,39.72
2022-12-08T21:08:07.956Z,37.38
2022-12-08T21:10:43.663Z,48.53
2022-12-08T21:13:15.095Z,39.58
2022-12-08T21:15:46.701Z,44.50
2022-12-08T21:18:15.986Z,63.27
2022-12-08T21:20:44.534Z,90.07
2022-12-08T21:23:12.356Z,90.80
2022-12-08T21:25:42.301Z,82.55
2022-12-08T21:28:10.874Z,60.40
2022-12-08T21:30:40.206Z,53.92
2022-12-08T21:33:08.257Z,53.10
2022-12-08T21:35:36.028Z,53.25
2022-12-08T21:38:06.510Z,37.38
2022-12-08T21:40:35.347Z,40.15
2022-12-08T21:43:04.230Z,32.20
2022-12-08T21:45:35.407Z,25.05
2022-12-08T21:48:11.045Z,35.03
2022-12-08T21:50:42.010Z,26.13
2022-12-08T21:53:10.924Z,30.75
2022-12-08T21:55:39.453Z,22.33
2022-12-08T21:58:07.232Z,21.33
2022-12-08T22:00:35.121Z,23.73
2022-12-08T22:03:04.113Z,26.65
2022-12-08T22:05:32.788Z,26.98
2022-12-08T22:08:00.732Z,23.60
2022-12-08T22:10:28.671Z,23.63
2022-12-08T22:12:59.229Z,24.83
2022-12-08T22:15:30.004Z,25.77
2022-12-08T22:17:58.712Z,25.48
2022-12-08T22:20:26.368Z,24.65
2022-12-08T22:22:57.492Z,20.98
2022-12-08T22:25:25.414Z,17.17
2022-12-08T22:27:55.250Z,23.02
2022-12-08T22:30:22.940Z,21.45
2022-12-08T22:32:54.276Z,23.52
2022-12-08T22:35:22.551Z,28.08
2022-12-08T22:37:50.239Z,27.38
2022-12-08T22:40:18.311Z,23.73
2022-12-08T22:42:47.107Z,26.30
2022-12-08T22:45:15.319Z,31.80
2022-12-08T22:47:45.689Z,30.80
2022-12-08T22:50:13.777Z,23.88
2022-12-08T22:52:42.101Z,29.67
2022-12-08T22:55:10.259Z,29.88
2022-12-08T22:57:37.979Z,23.90
2022-12-08T23:00:07.542Z,18.75
2022-12-08T23:02:38.258Z,19.77
2022-12-08T23:05:06.685Z,20.80
2022-12-08T23:07:34.537Z,25.40
2022-12-08T23:10:02.472Z,24.10
2022-12-08T23:12:31.964Z,26.65
2022-12-08T23:17:33.890Z,29.23
2022-12-08T23:20:01.769Z,20.90
2022-12-08T23:22:31.449Z,20.75
2022-12-08T23:24:59.496Z,16.05
2022-12-08T23:27:27.493Z,15.98
2022-12-08T23:29:55.772Z,13.88
2022-12-08T23:32:23.646Z,18.35
2022-12-08T23:34:52.363Z,16.13
2022-12-08T23:37:20.473Z,22.10
2022-12-08T23:39:48.492Z,18.05
2022-12-08T23:42:17.717Z,12.48
2022-12-08T23:44:45.400Z,18.30
2022-12-08T23:47:13.385Z,23.48
2022-12-08T23:49:47.616Z,20.40
2022-12-08T23:52:15.733Z,18.35
2022-12-08T23:54:44.986Z,18.58
2022-12-08T23:57:12.861Z,24.75
2022-12-08T23:59:40.663Z,20.00
